Northcrest, Texas
Current Conditions -  °F | °C
As of 9:55 AM on Saturday 22 Nov 2014 (Local Time) from KCNW Reporting Station
Haze Haze  
Wind Chill: 63°   Ceiling: 700
Heat Index: 63°   Visibility: 5mi
Dew Point: 61°   Wind: 7mph
Humidity: 94%   Direction: 130°SE
Pressure: 30.03"   Gusts: NA
Location:  31.6031°N, 97.0805°W
Report Text: KCNW 221555Z 13006KT 5SM BR OVC007 17/16 A3003
Loading
Personal Weather Stations






























Interactive Weather Map New forecast layout! Learn more

10-Day Weather Forecast

Advertisements
Track Severe Weather on mobile